Martin, GA

1:54 AM EDT on September 20, 2014 (GMT -0400)
TUGALOO RIVER | Change Station
CLOSE
Current Station
Personal Weather Stations
Location: OCONEE, SC
Elevation: 665 ft
Nearby Weather Stations

Elev 665 ft 34.58 °N, 83.14 °W | Updated 25 seconds ago

대체로 흐림
대체로 흐림
69.2 °F
Feels Like 69.2 °F
N
0.0
바람 Variable 바람 from 북서
Gusts 0.0 mph

오늘
High -- | Low -- °F
--% Chance of Precip.
어제
High -- | Low -- °F
Precip. -- 인치
7:19 AM 7:32 PM
그믐달, 14% visible
기압 30.19 인치
가시도 10.0 마일
구름 흐림 3600 ft
이슬점 62 °F
습도 77%
Rainfall 0.00 인치
Snow Depth Not available.
자외선 지수 0 out of 12
Pollen 7.90 out of 12
에어 품질 Not available.
Flu Activity Not available.
METAR KTOC 200535Z AUTO 06003KT 10SM OVC036 20/16 A3019 RMK AO2 T02030155

More Conditions Fewer Conditions

기압 30.19 인치
가시도 10.0 마일
구름 흐림 3600 ft
이슬점 62 °F
습도 77%
Rainfall 0.00 인치
Snow Depth Not available.
자외선 지수 0 out of 12
Pollen 7.90 out of 12
에어 품질 Not available.
Flu Activity Not available.
METAR KTOC 200535Z AUTO 06003KT 10SM OVC036 20/16 A3019 RMK AO2 T02030155

More Conditions Fewer Conditions

10-Day Weather Forecast

Almanac

천문

Sep. 20, 2014 Rise Set
Actual Time 07:19 EDT 19:32 EDT
Civil Twilight 06:54 EDT 19:57 EDT
Nautical Twilight 06:24 EDT 20:26 EDT
Astronomical Twilight 05:54 EDT 20:56 EDT
Moon 04:04 EDT 17:29 EDT
Length Of Visible Light 13h 03m
낮 길이
12h 13m
Tomorrow will be 2m 8s shorter.
그믐달, 14% of the Moon is Illuminated
오늘
그믐달
Sep 24
New
Oct 1
상현달
Oct 8
보름달
Oct 15
하현달

Today's Extremes

State Highs State Lows

Community

WunderPhotos

Upload Photos

1,754,777 photos uploaded!

WunderBlogs® & News

Nearby

Snow Depth

Station Depth Elevation
No new snow has been reported.

Earthquake Activity

City Distance Mag. Time & Date
New Ellenton, South Carolina 110 마일 2.6 16:38 EDT
2014-09-19
Minimum magnitude displayed is 2.5.

Coastal Water Temperatures

장소 기온
No Stations Reporting

Nearby Weather Stations